ENY4217 KDFW-MYAM
Flight info
| Callsign | ENY4217 |
|---|---|
| Flight time | N/A |
| Altitude | 33000 |
| Route | MRSSH3 ZALEA DCT MARVE DCT MUURY DCT NRAVN DCT INPIN DCT PERMT DCT WLKER DCT HAANA BR10L MRRSH |
| Aircraft | E75L/M-SDE3GILORVW/S |
Departure
| Time | N/A |
|---|---|
| Airport | Dallas Fort Worth International Airport (KDFW) |
Arrival
| Time | 2026-04-15 22:38 |
|---|---|
| Airport | Leonard M. Thompson International Airport (MYAM) |
| Time | Latitude | Longitude | Altitude | Speed | Heading |
|---|---|---|---|---|---|
| 2026-04-15 22:11 | 27.59703 | -79.39267 | 33168 ft | 481 kts | 112° |
| 2026-04-15 22:12 | 27.56390 | -79.31162 | 33162 ft | 493 kts | 112° |
| 2026-04-15 22:12 | 27.53960 | -79.25228 | 33163 ft | 499 kts | 112° |
| 2026-04-15 22:13 | 27.51057 | -79.18150 | 33160 ft | 499 kts | 112° |
| 2026-04-15 22:13 | 27.47668 | -79.09905 | 33152 ft | 485 kts | 112° |
| 2026-04-15 22:14 | 27.44849 | -79.03056 | 33159 ft | 481 kts | 112° |
| 2026-04-15 22:14 | 27.42028 | -78.96217 | 32595 ft | 482 kts | 112° |
| 2026-04-15 22:14 | 27.41156 | -78.93922 | 32250 ft | 476 kts | 107° |
| 2026-04-15 22:15 | 27.40135 | -78.90436 | 31742 ft | 468 kts | 105° |
| 2026-04-15 22:15 | 27.38796 | -78.85860 | 31058 ft | 460 kts | 105° |
| 2026-04-15 22:15 | 27.37781 | -78.82420 | 30546 ft | 455 kts | 105° |
| 2026-04-15 22:15 | 27.36783 | -78.79045 | 30044 ft | 450 kts | 105° |
| 2026-04-15 22:16 | 27.35800 | -78.75723 | 29551 ft | 446 kts | 105° |
| 2026-04-15 22:16 | 27.34818 | -78.72410 | 29047 ft | 442 kts | 105° |
| 2026-04-15 22:16 | 27.33848 | -78.69140 | 28555 ft | 439 kts | 105° |
| 2026-04-15 22:16 | 27.32887 | -78.65904 | 28075 ft | 436 kts | 105° |
| 2026-04-15 22:17 | 27.31922 | -78.62661 | 27590 ft | 433 kts | 105° |
| 2026-04-15 22:17 | 27.30969 | -78.59458 | 27109 ft | 429 kts | 105° |
| 2026-04-15 22:17 | 27.30019 | -78.56266 | 26635 ft | 426 kts | 105° |
| 2026-04-15 22:17 | 27.29081 | -78.53118 | 26166 ft | 422 kts | 105° |
| 2026-04-15 22:18 | 27.28151 | -78.50002 | 25701 ft | 419 kts | 105° |
| 2026-04-15 22:18 | 27.27221 | -78.46888 | 25236 ft | 416 kts | 105° |
| 2026-04-15 22:18 | 27.26308 | -78.43835 | 24782 ft | 413 kts | 105° |
| 2026-04-15 22:18 | 27.25374 | -78.40739 | 24320 ft | 411 kts | 108° |
| 2026-04-15 22:19 | 27.24096 | -78.37890 | 23882 ft | 410 kts | 116° |
| 2026-04-15 22:19 | 27.22702 | -78.35086 | 23418 ft | 408 kts | 116° |
| 2026-04-15 22:19 | 27.21310 | -78.32297 | 22966 ft | 406 kts | 117° |
| 2026-04-15 22:19 | 27.19933 | -78.29542 | 22521 ft | 403 kts | 117° |
| 2026-04-15 22:20 | 27.19013 | -78.27704 | 22227 ft | 401 kts | 117° |
| 2026-04-15 22:20 | 27.17196 | -78.24074 | 21639 ft | 398 kts | 117° |
| 2026-04-15 22:20 | 27.15860 | -78.21407 | 21206 ft | 395 kts | 117° |
| 2026-04-15 22:20 | 27.14510 | -78.18714 | 20768 ft | 392 kts | 117° |
| 2026-04-15 22:21 | 27.13171 | -78.16047 | 20334 ft | 390 kts | 116° |
| 2026-04-15 22:21 | 27.11846 | -78.13406 | 19904 ft | 387 kts | 116° |
| 2026-04-15 22:21 | 27.10530 | -78.10785 | 19479 ft | 385 kts | 116° |
| 2026-04-15 22:21 | 27.09204 | -78.08148 | 19048 ft | 383 kts | 116° |
| 2026-04-15 22:22 | 27.07904 | -78.05560 | 18622 ft | 381 kts | 116° |
| 2026-04-15 22:22 | 27.06608 | -78.02986 | 18202 ft | 379 kts | 116° |
| 2026-04-15 22:22 | 27.05319 | -78.00426 | 17786 ft | 376 kts | 116° |
| 2026-04-15 22:22 | 27.04027 | -77.97862 | 17366 ft | 374 kts | 116° |
| 2026-04-15 22:23 | 27.03187 | -77.96195 | 17095 ft | 371 kts | 116° |
| 2026-04-15 22:23 | 27.01912 | -77.93666 | 16684 ft | 369 kts | 116° |
| 2026-04-15 22:23 | 27.00249 | -77.90370 | 16147 ft | 365 kts | 116° |
| 2026-04-15 22:23 | 26.98993 | -77.87884 | 15741 ft | 363 kts | 116° |
| 2026-04-15 22:24 | 26.98175 | -77.86264 | 15476 ft | 361 kts | 116° |
| 2026-04-15 22:24 | 26.96523 | -77.82995 | 14940 ft | 357 kts | 116° |
| 2026-04-15 22:24 | 26.95305 | -77.80587 | 14548 ft | 355 kts | 117° |
| 2026-04-15 22:24 | 26.94492 | -77.78980 | 14286 ft | 353 kts | 117° |
| 2026-04-15 22:25 | 26.93285 | -77.76596 | 13899 ft | 351 kts | 117° |
| 2026-04-15 22:25 | 26.92098 | -77.74253 | 13516 ft | 349 kts | 117° |
| 2026-04-15 22:25 | 26.90501 | -77.71101 | 13004 ft | 346 kts | 117° |
| 2026-04-15 22:25 | 26.89316 | -77.68765 | 12621 ft | 344 kts | 117° |
| 2026-04-15 22:26 | 26.88529 | -77.67214 | 12366 ft | 342 kts | 117° |
| 2026-04-15 22:26 | 26.86964 | -77.64130 | 11857 ft | 338 kts | 117° |
| 2026-04-15 22:26 | 26.85805 | -77.61848 | 11481 ft | 331 kts | 117° |
| 2026-04-15 22:26 | 26.84677 | -77.59631 | 11114 ft | 322 kts | 117° |
| 2026-04-15 22:27 | 26.83943 | -77.58187 | 10876 ft | 316 kts | 117° |
| 2026-04-15 22:27 | 26.82507 | -77.55364 | 10417 ft | 305 kts | 117° |
| 2026-04-15 22:27 | 26.81470 | -77.53326 | 10086 ft | 297 kts | 117° |
| 2026-04-15 22:27 | 26.80455 | -77.51332 | 9760 ft | 292 kts | 117° |
| 2026-04-15 22:28 | 26.79448 | -77.49355 | 9441 ft | 290 kts | 117° |
| 2026-04-15 22:28 | 26.78459 | -77.47414 | 9125 ft | 289 kts | 117° |
| 2026-04-15 22:28 | 26.77454 | -77.45443 | 8802 ft | 287 kts | 117° |
| 2026-04-15 22:28 | 26.76459 | -77.43493 | 8481 ft | 286 kts | 117° |
| 2026-04-15 22:29 | 26.75480 | -77.41573 | 8166 ft | 284 kts | 117° |
| 2026-04-15 22:29 | 26.74504 | -77.39662 | 7828 ft | 279 kts | 117° |
| 2026-04-15 22:29 | 26.73499 | -77.37833 | 7502 ft | 272 kts | 129° |
| 2026-04-15 22:29 | 26.71915 | -77.36697 | 7217 ft | 267 kts | 158° |
| 2026-04-15 22:30 | 26.70755 | -77.36292 | 7010 ft | 264 kts | 160° |
| 2026-04-15 22:30 | 26.68408 | -77.35529 | 6600 ft | 255 kts | 161° |
| 2026-04-15 22:30 | 26.67288 | -77.35175 | 6411 ft | 251 kts | 161° |
| 2026-04-15 22:30 | 26.65055 | -77.34476 | 6043 ft | 243 kts | 161° |
| 2026-04-15 22:31 | 26.63988 | -77.34144 | 5866 ft | 240 kts | 161° |
| 2026-04-15 22:31 | 26.61860 | -77.33484 | 5512 ft | 233 kts | 161° |
| 2026-04-15 22:31 | 26.60301 | -77.33001 | 5258 ft | 231 kts | 161° |
| 2026-04-15 22:31 | 26.58738 | -77.32517 | 5004 ft | 231 kts | 161° |
| 2026-04-15 22:32 | 26.57700 | -77.32197 | 4834 ft | 231 kts | 161° |
| 2026-04-15 22:32 | 26.55639 | -77.31560 | 4495 ft | 230 kts | 161° |
| 2026-04-15 22:32 | 26.54609 | -77.31242 | 4324 ft | 227 kts | 161° |
| 2026-04-15 22:32 | 26.52602 | -77.30623 | 3987 ft | 221 kts | 161° |
| 2026-04-15 22:33 | 26.51640 | -77.30248 | 3814 ft | 214 kts | 143° |
| 2026-04-15 22:33 | 26.50724 | -77.28549 | 3587 ft | 188 kts | 93° |
| 2026-04-15 22:33 | 26.50664 | -77.27137 | 3429 ft | 173 kts | 89° |
| 2026-04-15 22:33 | 26.50647 | -77.25797 | 3073 ft | 169 kts | 88° |
| 2026-04-15 22:34 | 26.50650 | -77.24513 | 2799 ft | 162 kts | 88° |
| 2026-04-15 22:34 | 26.50663 | -77.23275 | 2562 ft | 155 kts | 87° |
| 2026-04-15 22:34 | 26.50675 | -77.22498 | 2409 ft | 144 kts | 87° |
| 2026-04-15 22:34 | 26.50694 | -77.21414 | 2190 ft | 131 kts | 86° |
| 2026-04-15 22:35 | 26.50716 | -77.20400 | 2029 ft | 128 kts | 86° |
| 2026-04-15 22:35 | 26.50738 | -77.19412 | 1906 ft | 129 kts | 86° |
| 2026-04-15 22:35 | 26.50771 | -77.18058 | 1694 ft | 130 kts | 86° |
| 2026-04-15 22:35 | 26.50794 | -77.17066 | 1523 ft | 124 kts | 85° |
| 2026-04-15 22:36 | 26.50819 | -77.16097 | 1361 ft | 124 kts | 86° |
| 2026-04-15 22:36 | 26.50843 | -77.15138 | 1184 ft | 123 kts | 86° |
| 2026-04-15 22:36 | 26.50859 | -77.14512 | 1073 ft | 124 kts | 86° |
| 2026-04-15 22:36 | 26.50884 | -77.13548 | 896 ft | 121 kts | 85° |
| 2026-04-15 22:37 | 26.50890 | -77.12318 | 579 ft | 116 kts | 86° |
| 2026-04-15 22:37 | 26.50905 | -77.11446 | 370 ft | 110 kts | 84° |
| 2026-04-15 22:37 | 26.50938 | -77.10594 | 224 ft | 109 kts | 84° |
| 2026-04-15 22:37 | 26.50975 | -77.09744 | 93 ft | 110 kts | 83° |
| 2026-04-15 22:38 | 26.50995 | -77.09169 | 17 ft | 109 kts | 84° |
| 2026-04-15 22:38 | 26.51017 | -77.08413 | 14 ft | 44 kts | 89° |
| 2026-04-15 22:38 | 26.51024 | -77.08240 | 15 ft | 24 kts | 82° |
| 2026-04-15 22:38 | 26.51060 | -77.08099 | 16 ft | 9 kts | 71° |
| 2026-04-15 22:39 | 26.51093 | -77.08033 | 16 ft | 9 kts | 57° |
| 2026-04-15 22:39 | 26.51141 | -77.07950 | 16 ft | 10 kts | 57° |
| 2026-04-15 22:39 | 26.51169 | -77.07900 | 15 ft | 12 kts | 59° |
| 2026-04-15 22:39 | 26.51212 | -77.07821 | 14 ft | 3 kts | 59° |
| 2026-04-15 22:40 | 26.51233 | -77.07809 | 14 ft | 4 kts | 330° |
| 2026-04-15 22:40 | 26.51272 | -77.07819 | 14 ft | 6 kts | 17° |
| 2026-04-15 22:40 | 26.51282 | -77.07816 | 14 ft | 0 kts | 13° |